sensor_id;sensor_type;location;lat;lon;timestamp;P1;durP1;ratioP1;P2;durP2;ratioP2
9052;SDS011;4561;47.450;7.516;2022-11-14T00:02:28;5.50;;;4.97;;
9052;SDS011;4561;47.450;7.516;2022-11-14T00:05:51;4.63;;;4.23;;
9052;SDS011;4561;47.450;7.516;2022-11-14T00:09:11;3.83;;;3.53;;
9052;SDS011;4561;47.450;7.516;2022-11-14T00:12:32;4.90;;;4.30;;
9052;SDS011;4561;47.450;7.516;2022-11-14T00:15:53;6.67;;;4.30;;
9052;SDS011;4561;47.450;7.516;2022-11-14T00:19:13;6.13;;;5.10;;
9052;SDS011;4561;47.450;7.516;2022-11-14T00:22:33;7.73;;;7.03;;
9052;SDS011;4561;47.450;7.516;2022-11-14T00:25:54;8.13;;;7.33;;
9052;SDS011;4561;47.450;7.516;2022-11-14T00:29:14;7.70;;;6.17;;
9052;SDS011;4561;47.450;7.516;2022-11-14T00:32:35;6.07;;;5.47;;
9052;SDS011;4561;47.450;7.516;2022-11-14T00:35:55;5.40;;;4.87;;
9052;SDS011;4561;47.450;7.516;2022-11-14T00:39:16;5.80;;;5.03;;
9052;SDS011;4561;47.450;7.516;2022-11-14T00:42:36;5.17;;;4.67;;
9052;SDS011;4561;47.450;7.516;2022-11-14T00:45:57;5.03;;;4.47;;
9052;SDS011;4561;47.450;7.516;2022-11-14T00:49:17;4.60;;;4.20;;
9052;SDS011;4561;47.450;7.516;2022-11-14T00:52:37;3.97;;;3.07;;
9052;SDS011;4561;47.450;7.516;2022-11-14T00:56:00;4.60;;;4.20;;
9052;SDS011;4561;47.450;7.516;2022-11-14T00:59:20;4.23;;;3.77;;
9052;SDS011;4561;47.450;7.516;2022-11-14T01:02:41;4.67;;;2.67;;
9052;SDS011;4561;47.450;7.516;2022-11-14T01:06:05;2.77;;;2.00;;
9052;SDS011;4561;47.450;7.516;2022-11-14T01:09:27;2.63;;;2.20;;
9052;SDS011;4561;47.450;7.516;2022-11-14T01:12:47;4.13;;;2.03;;
9052;SDS011;4561;47.450;7.516;2022-11-14T01:16:08;3.07;;;2.10;;
9052;SDS011;4561;47.450;7.516;2022-11-14T01:19:31;2.87;;;2.10;;
9052;SDS011;4561;47.450;7.516;2022-11-14T01:22:57;3.33;;;3.00;;
9052;SDS011;4561;47.450;7.516;2022-11-14T01:26:17;4.73;;;3.90;;
9052;SDS011;4561;47.450;7.516;2022-11-14T01:29:38;4.80;;;2.83;;
9052;SDS011;4561;47.450;7.516;2022-11-14T01:32:58;2.43;;;2.20;;
9052;SDS011;4561;47.450;7.516;2022-11-14T01:36:19;3.30;;;2.33;;
9052;SDS011;4561;47.450;7.516;2022-11-14T01:39:39;2.57;;;2.00;;
9052;SDS011;4561;47.450;7.516;2022-11-14T01:46:36;2.77;;;2.20;;
9052;SDS011;4561;47.450;7.516;2022-11-14T01:50:04;3.47;;;2.03;;
9052;SDS011;4561;47.450;7.516;2022-11-14T01:53:25;1.73;;;1.63;;
9052;SDS011;4561;47.450;7.516;2022-11-14T01:56:47;2.10;;;1.90;;
9052;SDS011;4561;47.450;7.516;2022-11-14T02:00:11;3.33;;;1.80;;
9052;SDS011;4561;47.450;7.516;2022-11-14T02:03:32;2.90;;;2.20;;
9052;SDS011;4561;47.450;7.516;2022-11-14T02:06:57;2.60;;;1.93;;
9052;SDS011;4561;47.450;7.516;2022-11-14T02:10:20;2.00;;;1.73;;
9052;SDS011;4561;47.450;7.516;2022-11-14T02:13:41;2.30;;;1.93;;
9052;SDS011;4561;47.450;7.516;2022-11-14T02:17:04;2.70;;;2.00;;
9052;SDS011;4561;47.450;7.516;2022-11-14T02:20:25;2.93;;;2.13;;
9052;SDS011;4561;47.450;7.516;2022-11-14T02:23:51;2.37;;;2.17;;
9052;SDS011;4561;47.450;7.516;2022-11-14T02:27:12;3.60;;;2.30;;
9052;SDS011;4561;47.450;7.516;2022-11-14T02:30:33;4.47;;;2.50;;
9052;SDS011;4561;47.450;7.516;2022-11-14T02:33:53;5.60;;;2.30;;
9052;SDS011;4561;47.450;7.516;2022-11-14T02:37:16;4.97;;;2.57;;
9052;SDS011;4561;47.450;7.516;2022-11-14T02:40:38;5.73;;;2.53;;
9052;SDS011;4561;47.450;7.516;2022-11-14T02:43:59;6.37;;;2.30;;
9052;SDS011;4561;47.450;7.516;2022-11-14T02:47:19;4.00;;;2.70;;
9052;SDS011;4561;47.450;7.516;2022-11-14T02:50:40;4.47;;;2.70;;
9052;SDS011;4561;47.450;7.516;2022-11-14T02:54:00;4.80;;;2.70;;
9052;SDS011;4561;47.450;7.516;2022-11-14T02:57:20;2.83;;;2.53;;
9052;SDS011;4561;47.450;7.516;2022-11-14T03:00:41;3.83;;;2.70;;
9052;SDS011;4561;47.450;7.516;2022-11-14T03:04:06;5.70;;;3.03;;
9052;SDS011;4561;47.450;7.516;2022-11-14T03:07:26;5.23;;;2.90;;
9052;SDS011;4561;47.450;7.516;2022-11-14T03:10:49;3.33;;;2.83;;
9052;SDS011;4561;47.450;7.516;2022-11-14T03:14:09;7.03;;;2.77;;
9052;SDS011;4561;47.450;7.516;2022-11-14T03:17:31;5.27;;;2.90;;
9052;SDS011;4561;47.450;7.516;2022-11-14T03:20:54;5.50;;;2.93;;
9052;SDS011;4561;47.450;7.516;2022-11-14T03:24:14;3.10;;;2.40;;
9052;SDS011;4561;47.450;7.516;2022-11-14T03:27:34;3.50;;;2.40;;
9052;SDS011;4561;47.450;7.516;2022-11-14T03:30:55;7.63;;;2.33;;
9052;SDS011;4561;47.450;7.516;2022-11-14T03:34:16;3.70;;;2.33;;
9052;SDS011;4561;47.450;7.516;2022-11-14T03:37:36;3.53;;;2.43;;
9052;SDS011;4561;47.450;7.516;2022-11-14T03:40:57;3.30;;;2.50;;
9052;SDS011;4561;47.450;7.516;2022-11-14T03:44:18;6.20;;;2.27;;
9052;SDS011;4561;47.450;7.516;2022-11-14T03:47:41;4.83;;;2.47;;
9052;SDS011;4561;47.450;7.516;2022-11-14T03:51:04;5.00;;;2.43;;
9052;SDS011;4561;47.450;7.516;2022-11-14T03:54:24;3.27;;;2.57;;
9052;SDS011;4561;47.450;7.516;2022-11-14T03:57:47;4.83;;;1.90;;
9052;SDS011;4561;47.450;7.516;2022-11-14T04:01:07;5.80;;;2.40;;
9052;SDS011;4561;47.450;7.516;2022-11-14T04:04:27;6.83;;;2.67;;
9052;SDS011;4561;47.450;7.516;2022-11-14T04:07:50;4.50;;;2.40;;
9052;SDS011;4561;47.450;7.516;2022-11-14T04:11:13;4.97;;;2.33;;
9052;SDS011;4561;47.450;7.516;2022-11-14T04:14:33;3.90;;;2.27;;
9052;SDS011;4561;47.450;7.516;2022-11-14T04:17:54;5.07;;;2.07;;
9052;SDS011;4561;47.450;7.516;2022-11-14T04:21:14;3.50;;;2.10;;
9052;SDS011;4561;47.450;7.516;2022-11-14T04:24:34;3.77;;;2.30;;
9052;SDS011;4561;47.450;7.516;2022-11-14T04:27:55;3.60;;;2.40;;
9052;SDS011;4561;47.450;7.516;2022-11-14T04:31:15;3.33;;;2.30;;
9052;SDS011;4561;47.450;7.516;2022-11-14T04:34:35;6.67;;;2.43;;
9052;SDS011;4561;47.450;7.516;2022-11-14T04:37:56;4.63;;;2.10;;
9052;SDS011;4561;47.450;7.516;2022-11-14T04:41:16;5.00;;;2.30;;
9052;SDS011;4561;47.450;7.516;2022-11-14T04:44:39;4.40;;;2.40;;
9052;SDS011;4561;47.450;7.516;2022-11-14T04:47:59;3.77;;;2.40;;
9052;SDS011;4561;47.450;7.516;2022-11-14T04:51:19;6.87;;;2.40;;
9052;SDS011;4561;47.450;7.516;2022-11-14T04:54:45;3.60;;;2.67;;
9052;SDS011;4561;47.450;7.516;2022-11-14T04:58:05;3.67;;;2.23;;
9052;SDS011;4561;47.450;7.516;2022-11-14T05:01:27;4.00;;;2.20;;
9052;SDS011;4561;47.450;7.516;2022-11-14T05:04:48;4.47;;;2.40;;
9052;SDS011;4561;47.450;7.516;2022-11-14T05:08:08;6.93;;;2.97;;
9052;SDS011;4561;47.450;7.516;2022-11-14T05:11:29;5.77;;;2.73;;
9052;SDS011;4561;47.450;7.516;2022-11-14T05:14:49;3.37;;;2.33;;
9052;SDS011;4561;47.450;7.516;2022-11-14T05:18:09;6.63;;;2.77;;
9052;SDS011;4561;47.450;7.516;2022-11-14T05:21:30;3.40;;;2.43;;
9052;SDS011;4561;47.450;7.516;2022-11-14T05:24:56;6.37;;;2.50;;
9052;SDS011;4561;47.450;7.516;2022-11-14T05:28:18;4.60;;;2.33;;
9052;SDS011;4561;47.450;7.516;2022-11-14T05:31:39;3.73;;;2.33;;
9052;SDS011;4561;47.450;7.516;2022-11-14T05:35:01;2.97;;;2.20;;
9052;SDS011;4561;47.450;7.516;2022-11-14T05:38:22;6.03;;;2.50;;
9052;SDS011;4561;47.450;7.516;2022-11-14T05:41:42;3.47;;;2.47;;
9052;SDS011;4561;47.450;7.516;2022-11-14T05:45:03;2.77;;;2.23;;
9052;SDS011;4561;47.450;7.516;2022-11-14T05:48:23;5.47;;;2.47;;
9052;SDS011;4561;47.450;7.516;2022-11-14T05:51:44;4.33;;;2.70;;
9052;SDS011;4561;47.450;7.516;2022-11-14T05:55:04;3.57;;;2.10;;
9052;SDS011;4561;47.450;7.516;2022-11-14T05:58:25;6.90;;;2.40;;
9052;SDS011;4561;47.450;7.516;2022-11-14T06:01:46;3.70;;;2.30;;
9052;SDS011;4561;47.450;7.516;2022-11-14T06:05:06;2.97;;;2.33;;
9052;SDS011;4561;47.450;7.516;2022-11-14T06:08:27;4.20;;;2.57;;
9052;SDS011;4561;47.450;7.516;2022-11-14T06:11:48;6.40;;;2.60;;
9052;SDS011;4561;47.450;7.516;2022-11-14T06:15:09;5.20;;;2.40;;
9052;SDS011;4561;47.450;7.516;2022-11-14T06:18:29;5.73;;;2.60;;
9052;SDS011;4561;47.450;7.516;2022-11-14T06:21:52;7.90;;;2.47;;
9052;SDS011;4561;47.450;7.516;2022-11-14T06:25:13;6.13;;;2.90;;
9052;SDS011;4561;47.450;7.516;2022-11-14T06:28:33;6.83;;;2.93;;
9052;SDS011;4561;47.450;7.516;2022-11-14T06:31:54;5.60;;;2.60;;
9052;SDS011;4561;47.450;7.516;2022-11-14T06:35:16;3.47;;;2.37;;
9052;SDS011;4561;47.450;7.516;2022-11-14T06:38:37;4.17;;;2.70;;
9052;SDS011;4561;47.450;7.516;2022-11-14T06:41:58;3.77;;;2.40;;
9052;SDS011;4561;47.450;7.516;2022-11-14T06:45:19;5.57;;;2.60;;
9052;SDS011;4561;47.450;7.516;2022-11-14T06:48:39;6.63;;;2.83;;
9052;SDS011;4561;47.450;7.516;2022-11-14T06:52:02;34.33;;;26.33;;
9052;SDS011;4561;47.450;7.516;2022-11-14T06:55:23;28.37;;;21.57;;
9052;SDS011;4561;47.450;7.516;2022-11-14T06:58:44;16.13;;;11.97;;
9052;SDS011;4561;47.450;7.516;2022-11-14T07:02:09;5.17;;;3.10;;
9052;SDS011;4561;47.450;7.516;2022-11-14T07:05:31;5.73;;;2.60;;
9052;SDS011;4561;47.450;7.516;2022-11-14T07:08:51;2.30;;;2.10;;
9052;SDS011;4561;47.450;7.516;2022-11-14T07:12:13;7.37;;;3.17;;
9052;SDS011;4561;47.450;7.516;2022-11-14T07:15:33;3.93;;;2.90;;
9052;SDS011;4561;47.450;7.516;2022-11-14T07:18:54;16.77;;;12.67;;
9052;SDS011;4561;47.450;7.516;2022-11-14T07:22:17;5.57;;;2.97;;
9052;SDS011;4561;47.450;7.516;2022-11-14T07:25:38;6.90;;;2.70;;
9052;SDS011;4561;47.450;7.516;2022-11-14T07:29:00;3.87;;;2.30;;
9052;SDS011;4561;47.450;7.516;2022-11-14T07:32:21;4.87;;;2.60;;
9052;SDS011;4561;47.450;7.516;2022-11-14T07:35:41;7.10;;;3.00;;
9052;SDS011;4561;47.450;7.516;2022-11-14T07:39:04;4.80;;;3.60;;
9052;SDS011;4561;47.450;7.516;2022-11-14T07:42:27;9.83;;;6.10;;
9052;SDS011;4561;47.450;7.516;2022-11-14T07:45:50;6.90;;;5.20;;
9052;SDS011;4561;47.450;7.516;2022-11-14T07:49:11;4.30;;;2.90;;
9052;SDS011;4561;47.450;7.516;2022-11-14T07:52:31;5.37;;;2.73;;
9052;SDS011;4561;47.450;7.516;2022-11-14T07:55:52;6.07;;;4.53;;
9052;SDS011;4561;47.450;7.516;2022-11-14T07:59:12;6.00;;;4.30;;
9052;SDS011;4561;47.450;7.516;2022-11-14T08:02:36;5.70;;;3.40;;
9052;SDS011;4561;47.450;7.516;2022-11-14T08:06:03;3.73;;;2.50;;
9052;SDS011;4561;47.450;7.516;2022-11-14T08:09:25;4.00;;;3.20;;
9052;SDS011;4561;47.450;7.516;2022-11-14T08:12:45;4.77;;;3.83;;
9052;SDS011;4561;47.450;7.516;2022-11-14T08:16:07;4.27;;;2.83;;
9052;SDS011;4561;47.450;7.516;2022-11-14T08:19:29;4.63;;;2.90;;
9052;SDS011;4561;47.450;7.516;2022-11-14T08:22:52;4.80;;;3.37;;
9052;SDS011;4561;47.450;7.516;2022-11-14T08:26:13;4.10;;;2.60;;
9052;SDS011;4561;47.450;7.516;2022-11-14T08:29:33;5.50;;;3.03;;
9052;SDS011;4561;47.450;7.516;2022-11-14T08:32:53;3.37;;;2.30;;
9052;SDS011;4561;47.450;7.516;2022-11-14T08:36:14;3.63;;;2.70;;
9052;SDS011;4561;47.450;7.516;2022-11-14T08:39:34;4.33;;;2.37;;
9052;SDS011;4561;47.450;7.516;2022-11-14T08:42:58;4.97;;;2.30;;
9052;SDS011;4561;47.450;7.516;2022-11-14T08:46:20;4.37;;;2.50;;
9052;SDS011;4561;47.450;7.516;2022-11-14T08:49:42;4.37;;;2.90;;
9052;SDS011;4561;47.450;7.516;2022-11-14T08:53:03;5.27;;;2.63;;
9052;SDS011;4561;47.450;7.516;2022-11-14T08:56:23;3.87;;;2.20;;
9052;SDS011;4561;47.450;7.516;2022-11-14T08:59:43;3.23;;;2.30;;
9052;SDS011;4561;47.450;7.516;2022-11-14T09:03:07;3.40;;;2.53;;
9052;SDS011;4561;47.450;7.516;2022-11-14T09:06:28;2.83;;;2.40;;
9052;SDS011;4561;47.450;7.516;2022-11-14T09:09:48;4.37;;;2.53;;
9052;SDS011;4561;47.450;7.516;2022-11-14T09:13:09;5.37;;;2.43;;
9052;SDS011;4561;47.450;7.516;2022-11-14T09:16:29;6.33;;;2.57;;
9052;SDS011;4561;47.450;7.516;2022-11-14T09:19:52;4.63;;;3.00;;
9052;SDS011;4561;47.450;7.516;2022-11-14T09:23:13;4.37;;;2.40;;
9052;SDS011;4561;47.450;7.516;2022-11-14T09:26:33;3.63;;;3.33;;
9052;SDS011;4561;47.450;7.516;2022-11-14T09:29:54;5.47;;;2.60;;
9052;SDS011;4561;47.450;7.516;2022-11-14T09:33:14;5.20;;;3.80;;
9052;SDS011;4561;47.450;7.516;2022-11-14T09:36:35;5.37;;;2.40;;
9052;SDS011;4561;47.450;7.516;2022-11-14T09:39:58;2.63;;;2.13;;
9052;SDS011;4561;47.450;7.516;2022-11-14T09:47:12;3.60;;;1.83;;
9052;SDS011;4561;47.450;7.516;2022-11-14T09:50:42;2.77;;;2.00;;
9052;SDS011;4561;47.450;7.516;2022-11-14T09:54:10;3.53;;;2.10;;
9052;SDS011;4561;47.450;7.516;2022-11-14T09:57:38;3.27;;;2.20;;
9052;SDS011;4561;47.450;7.516;2022-11-14T10:01:02;3.47;;;1.83;;
9052;SDS011;4561;47.450;7.516;2022-11-14T10:11:55;3.87;;;2.00;;
9052;SDS011;4561;47.450;7.516;2022-11-14T10:15:36;2.33;;;2.10;;
9052;SDS011;4561;47.450;7.516;2022-11-14T10:37:02;3.73;;;2.60;;
9052;SDS011;4561;47.450;7.516;2022-11-14T10:44:04;3.00;;;2.00;;
9052;SDS011;4561;47.450;7.516;2022-11-14T10:47:36;2.00;;;1.80;;
9052;SDS011;4561;47.450;7.516;2022-11-14T10:51:01;4.00;;;2.27;;
9052;SDS011;4561;47.450;7.516;2022-11-14T10:57:53;4.33;;;2.30;;
9052;SDS011;4561;47.450;7.516;2022-11-14T11:05:03;2.67;;;1.80;;
9052;SDS011;4561;47.450;7.516;2022-11-14T11:08:39;4.43;;;1.80;;
9052;SDS011;4561;47.450;7.516;2022-11-14T11:12:37;2.37;;;1.80;;
9052;SDS011;4561;47.450;7.516;2022-11-14T11:16:08;2.93;;;1.60;;
9052;SDS011;4561;47.450;7.516;2022-11-14T11:19:30;1.80;;;1.70;;
9052;SDS011;4561;47.450;7.516;2022-11-14T11:23:36;2.33;;;1.63;;
9052;SDS011;4561;47.450;7.516;2022-11-14T11:26:31;2.77;;;1.77;;
9052;SDS011;4561;47.450;7.516;2022-11-14T11:30:02;2.20;;;2.00;;
9052;SDS011;4561;47.450;7.516;2022-11-14T11:33:30;3.80;;;1.90;;
9052;SDS011;4561;47.450;7.516;2022-11-14T11:36:56;4.10;;;1.80;;
9052;SDS011;4561;47.450;7.516;2022-11-14T11:40:21;2.53;;;2.00;;
9052;SDS011;4561;47.450;7.516;2022-11-14T11:43:47;2.57;;;1.90;;
9052;SDS011;4561;47.450;7.516;2022-11-14T11:47:12;4.70;;;1.97;;
9052;SDS011;4561;47.450;7.516;2022-11-14T11:50:34;4.73;;;1.73;;
9052;SDS011;4561;47.450;7.516;2022-11-14T11:53:57;3.53;;;1.77;;
9052;SDS011;4561;47.450;7.516;2022-11-14T11:57:22;2.30;;;1.80;;
9052;SDS011;4561;47.450;7.516;2022-11-14T12:00:46;4.27;;;1.70;;
9052;SDS011;4561;47.450;7.516;2022-11-14T12:04:06;2.27;;;1.40;;
9052;SDS011;4561;47.450;7.516;2022-11-14T12:07:37;2.47;;;1.60;;
9052;SDS011;4561;47.450;7.516;2022-11-14T12:11:04;2.33;;;1.60;;
9052;SDS011;4561;47.450;7.516;2022-11-14T12:36:07;6.60;;;1.57;;
9052;SDS011;4561;47.450;7.516;2022-11-14T12:39:29;3.00;;;1.67;;
9052;SDS011;4561;47.450;7.516;2022-11-14T12:42:51;3.73;;;1.70;;
9052;SDS011;4561;47.450;7.516;2022-11-14T12:46:12;5.30;;;2.00;;
9052;SDS011;4561;47.450;7.516;2022-11-14T12:56:58;2.87;;;1.60;;
9052;SDS011;4561;47.450;7.516;2022-11-14T13:00:19;3.17;;;1.73;;
9052;SDS011;4561;47.450;7.516;2022-11-14T13:07:12;3.27;;;1.67;;
9052;SDS011;4561;47.450;7.516;2022-11-14T13:10:53;3.67;;;1.83;;
9052;SDS011;4561;47.450;7.516;2022-11-14T13:14:13;2.40;;;1.60;;
9052;SDS011;4561;47.450;7.516;2022-11-14T13:18:01;2.77;;;1.80;;
9052;SDS011;4561;47.450;7.516;2022-11-14T13:25:33;2.67;;;2.00;;
9052;SDS011;4561;47.450;7.516;2022-11-14T13:28:53;2.40;;;1.60;;
9052;SDS011;4561;47.450;7.516;2022-11-14T13:32:37;2.23;;;1.63;;
9052;SDS011;4561;47.450;7.516;2022-11-14T13:36:00;2.07;;;1.13;;
9052;SDS011;4561;47.450;7.516;2022-11-14T13:49:51;3.03;;;1.53;;
9052;SDS011;4561;47.450;7.516;2022-11-14T13:53:13;2.57;;;1.43;;
9052;SDS011;4561;47.450;7.516;2022-11-14T14:00:28;3.70;;;2.23;;
9052;SDS011;4561;47.450;7.516;2022-11-14T14:04:08;3.20;;;1.53;;
9052;SDS011;4561;47.450;7.516;2022-11-14T14:11:46;3.93;;;1.70;;
9052;SDS011;4561;47.450;7.516;2022-11-14T14:15:22;1.50;;;1.37;;
9052;SDS011;4561;47.450;7.516;2022-11-14T14:22:09;3.00;;;1.20;;
9052;SDS011;4561;47.450;7.516;2022-11-14T14:25:55;2.80;;;1.40;;
9052;SDS011;4561;47.450;7.516;2022-11-14T14:29:23;4.23;;;1.90;;
9052;SDS011;4561;47.450;7.516;2022-11-14T14:36:27;4.50;;;1.83;;
9052;SDS011;4561;47.450;7.516;2022-11-14T14:39:58;2.67;;;1.20;;
9052;SDS011;4561;47.450;7.516;2022-11-14T14:43:32;4.27;;;1.70;;
9052;SDS011;4561;47.450;7.516;2022-11-14T14:46:53;2.27;;;1.30;;
9052;SDS011;4561;47.450;7.516;2022-11-14T14:53:35;1.97;;;1.20;;
9052;SDS011;4561;47.450;7.516;2022-11-14T14:56:58;1.77;;;1.20;;
9052;SDS011;4561;47.450;7.516;2022-11-14T15:03:41;2.10;;;1.30;;
9052;SDS011;4561;47.450;7.516;2022-11-14T15:07:03;2.50;;;1.60;;
9052;SDS011;4561;47.450;7.516;2022-11-14T15:10:25;2.30;;;1.30;;
9052;SDS011;4561;47.450;7.516;2022-11-14T15:13:53;2.70;;;1.60;;
9052;SDS011;4561;47.450;7.516;2022-11-14T15:17:16;5.30;;;1.83;;
9052;SDS011;4561;47.450;7.516;2022-11-14T15:20:36;4.43;;;2.00;;
9052;SDS011;4561;47.450;7.516;2022-11-14T15:27:21;2.73;;;1.53;;
9052;SDS011;4561;47.450;7.516;2022-11-14T15:30:53;3.10;;;1.67;;
9052;SDS011;4561;47.450;7.516;2022-11-14T15:34:26;3.33;;;1.53;;
9052;SDS011;4561;47.450;7.516;2022-11-14T15:41:48;3.80;;;1.40;;
9052;SDS011;4561;47.450;7.516;2022-11-14T15:45:25;2.53;;;1.57;;
9052;SDS011;4561;47.450;7.516;2022-11-14T15:48:49;3.80;;;1.40;;
9052;SDS011;4561;47.450;7.516;2022-11-14T15:52:23;4.87;;;1.80;;
9052;SDS011;4561;47.450;7.516;2022-11-14T15:55:46;1.40;;;1.30;;
9052;SDS011;4561;47.450;7.516;2022-11-14T15:59:06;2.37;;;1.10;;
9052;SDS011;4561;47.450;7.516;2022-11-14T16:02:28;3.80;;;1.40;;
9052;SDS011;4561;47.450;7.516;2022-11-14T16:05:50;2.20;;;1.37;;
9052;SDS011;4561;47.450;7.516;2022-11-14T16:09:14;1.97;;;1.60;;
9052;SDS011;4561;47.450;7.516;2022-11-14T16:12:36;2.67;;;1.37;;
9052;SDS011;4561;47.450;7.516;2022-11-14T16:15:57;2.43;;;1.40;;
9052;SDS011;4561;47.450;7.516;2022-11-14T16:19:17;2.50;;;1.40;;
9052;SDS011;4561;47.450;7.516;2022-11-14T16:22:37;2.07;;;1.37;;
9052;SDS011;4561;47.450;7.516;2022-11-14T16:25:58;3.13;;;1.50;;
9052;SDS011;4561;47.450;7.516;2022-11-14T16:29:18;4.40;;;2.53;;
9052;SDS011;4561;47.450;7.516;2022-11-14T16:32:39;3.23;;;2.80;;
9052;SDS011;4561;47.450;7.516;2022-11-14T16:36:00;1.83;;;1.70;;
9052;SDS011;4561;47.450;7.516;2022-11-14T16:39:20;2.27;;;1.50;;
9052;SDS011;4561;47.450;7.516;2022-11-14T16:42:41;2.57;;;1.70;;
9052;SDS011;4561;47.450;7.516;2022-11-14T16:46:04;1.87;;;1.30;;
9052;SDS011;4561;47.450;7.516;2022-11-14T16:49:25;1.83;;;1.33;;
9052;SDS011;4561;47.450;7.516;2022-11-14T16:52:46;1.67;;;1.47;;
9052;SDS011;4561;47.450;7.516;2022-11-14T16:56:09;3.97;;;1.33;;
9052;SDS011;4561;47.450;7.516;2022-11-14T16:59:31;2.67;;;1.60;;
9052;SDS011;4561;47.450;7.516;2022-11-14T17:02:51;1.80;;;1.40;;
9052;SDS011;4561;47.450;7.516;2022-11-14T17:06:12;3.47;;;1.47;;
9052;SDS011;4561;47.450;7.516;2022-11-14T17:09:32;2.30;;;1.77;;
9052;SDS011;4561;47.450;7.516;2022-11-14T17:12:52;2.53;;;1.20;;
9052;SDS011;4561;47.450;7.516;2022-11-14T17:16:15;1.47;;;1.33;;
9052;SDS011;4561;47.450;7.516;2022-11-14T17:19:36;4.83;;;4.20;;
9052;SDS011;4561;47.450;7.516;2022-11-14T17:23:04;4.60;;;3.20;;
9052;SDS011;4561;47.450;7.516;2022-11-14T17:26:24;2.00;;;1.77;;
9052;SDS011;4561;47.450;7.516;2022-11-14T17:29:45;5.70;;;3.47;;
9052;SDS011;4561;47.450;7.516;2022-11-14T17:33:10;4.77;;;3.27;;
9052;SDS011;4561;47.450;7.516;2022-11-14T17:36:30;3.87;;;3.10;;
9052;SDS011;4561;47.450;7.516;2022-11-14T17:39:51;2.87;;;2.20;;
9052;SDS011;4561;47.450;7.516;2022-11-14T17:43:14;5.37;;;3.43;;
9052;SDS011;4561;47.450;7.516;2022-11-14T17:46:37;3.27;;;2.33;;
9052;SDS011;4561;47.450;7.516;2022-11-14T17:49:57;3.50;;;2.37;;
9052;SDS011;4561;47.450;7.516;2022-11-14T17:53:17;4.67;;;3.00;;
9052;SDS011;4561;47.450;7.516;2022-11-14T17:56:38;13.33;;;8.40;;
9052;SDS011;4561;47.450;7.516;2022-11-14T18:00:01;10.07;;;5.73;;
9052;SDS011;4561;47.450;7.516;2022-11-14T18:03:23;3.30;;;3.00;;
9052;SDS011;4561;47.450;7.516;2022-11-14T18:06:46;4.00;;;2.23;;
9052;SDS011;4561;47.450;7.516;2022-11-14T18:10:07;1.90;;;1.70;;
9052;SDS011;4561;47.450;7.516;2022-11-14T18:13:27;5.13;;;4.30;;
9052;SDS011;4561;47.450;7.516;2022-11-14T18:16:48;5.17;;;3.67;;
9052;SDS011;4561;47.450;7.516;2022-11-14T18:20:10;6.17;;;4.50;;
9052;SDS011;4561;47.450;7.516;2022-11-14T18:23:31;4.40;;;3.40;;
9052;SDS011;4561;47.450;7.516;2022-11-14T18:26:51;6.13;;;5.47;;
9052;SDS011;4561;47.450;7.516;2022-11-14T18:30:12;5.43;;;4.10;;
9052;SDS011;4561;47.450;7.516;2022-11-14T18:33:33;4.43;;;3.63;;
9052;SDS011;4561;47.450;7.516;2022-11-14T18:36:54;4.03;;;2.67;;
9052;SDS011;4561;47.450;7.516;2022-11-14T18:40:15;2.60;;;2.10;;
9052;SDS011;4561;47.450;7.516;2022-11-14T18:43:36;2.60;;;1.70;;
9052;SDS011;4561;47.450;7.516;2022-11-14T18:46:56;2.80;;;1.50;;
9052;SDS011;4561;47.450;7.516;2022-11-14T18:50:16;2.77;;;1.60;;
9052;SDS011;4561;47.450;7.516;2022-11-14T18:53:37;1.93;;;1.57;;
9052;SDS011;4561;47.450;7.516;2022-11-14T18:56:58;3.63;;;1.70;;
9052;SDS011;4561;47.450;7.516;2022-11-14T19:00:19;3.13;;;1.80;;
9052;SDS011;4561;47.450;7.516;2022-11-14T19:03:42;2.87;;;1.80;;
9052;SDS011;4561;47.450;7.516;2022-11-14T19:07:02;3.10;;;1.90;;
9052;SDS011;4561;47.450;7.516;2022-11-14T19:10:23;3.97;;;2.10;;
9052;SDS011;4561;47.450;7.516;2022-11-14T19:13:43;2.03;;;1.47;;
9052;SDS011;4561;47.450;7.516;2022-11-14T19:17:03;2.07;;;1.50;;
9052;SDS011;4561;47.450;7.516;2022-11-14T19:20:25;2.50;;;1.70;;
9052;SDS011;4561;47.450;7.516;2022-11-14T19:23:46;2.27;;;1.70;;
9052;SDS011;4561;47.450;7.516;2022-11-14T19:27:06;7.27;;;1.80;;
9052;SDS011;4561;47.450;7.516;2022-11-14T19:30:27;1.97;;;1.60;;
9052;SDS011;4561;47.450;7.516;2022-11-14T19:33:50;2.20;;;1.80;;
9052;SDS011;4561;47.450;7.516;2022-11-14T19:37:12;3.90;;;1.50;;
9052;SDS011;4561;47.450;7.516;2022-11-14T19:40:35;1.80;;;1.40;;
9052;SDS011;4561;47.450;7.516;2022-11-14T19:43:56;3.73;;;1.43;;
9052;SDS011;4561;47.450;7.516;2022-11-14T19:47:20;3.20;;;1.30;;
9052;SDS011;4561;47.450;7.516;2022-11-14T19:50:40;2.83;;;1.60;;
9052;SDS011;4561;47.450;7.516;2022-11-14T19:54:01;1.90;;;1.43;;
9052;SDS011;4561;47.450;7.516;2022-11-14T19:57:22;1.67;;;1.40;;
9052;SDS011;4561;47.450;7.516;2022-11-14T20:00:42;2.03;;;1.40;;
9052;SDS011;4561;47.450;7.516;2022-11-14T20:04:02;1.73;;;1.37;;
9052;SDS011;4561;47.450;7.516;2022-11-14T20:07:23;1.93;;;1.33;;
9052;SDS011;4561;47.450;7.516;2022-11-14T20:10:53;2.00;;;1.33;;
9052;SDS011;4561;47.450;7.516;2022-11-14T20:14:16;4.20;;;1.60;;
9052;SDS011;4561;47.450;7.516;2022-11-14T20:17:36;2.40;;;1.47;;
9052;SDS011;4561;47.450;7.516;2022-11-14T20:21:06;4.87;;;1.50;;
9052;SDS011;4561;47.450;7.516;2022-11-14T20:24:29;3.83;;;1.80;;
9052;SDS011;4561;47.450;7.516;2022-11-14T20:27:50;2.80;;;1.63;;
9052;SDS011;4561;47.450;7.516;2022-11-14T20:31:12;2.07;;;1.57;;
9052;SDS011;4561;47.450;7.516;2022-11-14T20:34:34;1.60;;;1.40;;
9052;SDS011;4561;47.450;7.516;2022-11-14T20:37:54;2.07;;;1.30;;
9052;SDS011;4561;47.450;7.516;2022-11-14T20:41:15;3.30;;;1.40;;
9052;SDS011;4561;47.450;7.516;2022-11-14T20:44:36;4.30;;;1.33;;
9052;SDS011;4561;47.450;7.516;2022-11-14T20:47:56;2.90;;;1.63;;
9052;SDS011;4561;47.450;7.516;2022-11-14T20:51:18;2.23;;;1.50;;
9052;SDS011;4561;47.450;7.516;2022-11-14T20:54:39;2.97;;;1.30;;
9052;SDS011;4561;47.450;7.516;2022-11-14T20:57:59;1.70;;;1.60;;
9052;SDS011;4561;47.450;7.516;2022-11-14T21:01:20;1.93;;;1.37;;
9052;SDS011;4561;47.450;7.516;2022-11-14T21:04:40;1.67;;;1.47;;
9052;SDS011;4561;47.450;7.516;2022-11-14T21:08:01;2.07;;;1.60;;
9052;SDS011;4561;47.450;7.516;2022-11-14T21:11:23;1.77;;;1.13;;
9052;SDS011;4561;47.450;7.516;2022-11-14T21:14:43;1.80;;;1.50;;
9052;SDS011;4561;47.450;7.516;2022-11-14T21:18:04;3.10;;;1.30;;
9052;SDS011;4561;47.450;7.516;2022-11-14T21:21:26;1.80;;;1.27;;
9052;SDS011;4561;47.450;7.516;2022-11-14T21:24:47;1.60;;;1.40;;
9052;SDS011;4561;47.450;7.516;2022-11-14T21:28:07;3.00;;;1.80;;
9052;SDS011;4561;47.450;7.516;2022-11-14T21:31:29;1.60;;;1.50;;
9052;SDS011;4561;47.450;7.516;2022-11-14T21:34:53;3.23;;;1.53;;
9052;SDS011;4561;47.450;7.516;2022-11-14T21:38:13;1.63;;;1.43;;
9052;SDS011;4561;47.450;7.516;2022-11-14T21:41:37;3.60;;;1.60;;
9052;SDS011;4561;47.450;7.516;2022-11-14T21:44:57;1.63;;;1.50;;
9052;SDS011;4561;47.450;7.516;2022-11-14T21:48:20;2.03;;;1.53;;
9052;SDS011;4561;47.450;7.516;2022-11-14T21:51:40;2.70;;;1.50;;
9052;SDS011;4561;47.450;7.516;2022-11-14T21:55:00;2.40;;;1.90;;
9052;SDS011;4561;47.450;7.516;2022-11-14T21:58:21;1.83;;;1.50;;
9052;SDS011;4561;47.450;7.516;2022-11-14T22:01:44;2.07;;;1.40;;
9052;SDS011;4561;47.450;7.516;2022-11-14T22:05:27;1.77;;;1.57;;
9052;SDS011;4561;47.450;7.516;2022-11-14T22:08:53;2.03;;;1.80;;
9052;SDS011;4561;47.450;7.516;2022-11-14T22:12:14;4.13;;;1.40;;
9052;SDS011;4561;47.450;7.516;2022-11-14T22:15:35;1.63;;;1.47;;
9052;SDS011;4561;47.450;7.516;2022-11-14T22:18:55;3.50;;;1.60;;
9052;SDS011;4561;47.450;7.516;2022-11-14T22:22:15;1.40;;;1.10;;
9052;SDS011;4561;47.450;7.516;2022-11-14T22:25:36;3.57;;;1.50;;
9052;SDS011;4561;47.450;7.516;2022-11-14T22:28:56;1.83;;;1.40;;
9052;SDS011;4561;47.450;7.516;2022-11-14T22:32:17;1.83;;;1.63;;
9052;SDS011;4561;47.450;7.516;2022-11-14T22:35:37;2.23;;;1.90;;
9052;SDS011;4561;47.450;7.516;2022-11-14T22:38:57;2.50;;;1.70;;
9052;SDS011;4561;47.450;7.516;2022-11-14T22:42:18;3.13;;;2.33;;
9052;SDS011;4561;47.450;7.516;2022-11-14T22:45:38;11.83;;;8.90;;
9052;SDS011;4561;47.450;7.516;2022-11-14T22:49:01;4.40;;;3.53;;
9052;SDS011;4561;47.450;7.516;2022-11-14T22:52:22;4.43;;;2.40;;
9052;SDS011;4561;47.450;7.516;2022-11-14T22:55:46;8.23;;;5.47;;
9052;SDS011;4561;47.450;7.516;2022-11-14T22:59:09;2.80;;;2.27;;